sensor_id;sensor_type;location;lat;lon;timestamp;temperature;humidity
31979;DHT22;18502;43.574;1.276;2023-07-31T00:00:28;18.90;99.90
31979;DHT22;18502;43.574;1.276;2023-07-31T00:02:54;18.90;99.90
31979;DHT22;18502;43.574;1.276;2023-07-31T00:05:20;18.80;99.90
31979;DHT22;18502;43.574;1.276;2023-07-31T00:07:46;18.80;99.90
31979;DHT22;18502;43.574;1.276;2023-07-31T00:10:12;18.70;99.90
31979;DHT22;18502;43.574;1.276;2023-07-31T00:12:43;18.70;99.90
31979;DHT22;18502;43.574;1.276;2023-07-31T00:15:09;18.60;99.90
31979;DHT22;18502;43.574;1.276;2023-07-31T00:17:35;18.60;99.90
31979;DHT22;18502;43.574;1.276;2023-07-31T00:20:01;18.60;99.90
31979;DHT22;18502;43.574;1.276;2023-07-31T00:22:27;18.60;99.90
31979;DHT22;18502;43.574;1.276;2023-07-31T00:24:53;18.60;99.90
31979;DHT22;18502;43.574;1.276;2023-07-31T00:27:19;18.40;99.90
31979;DHT22;18502;43.574;1.276;2023-07-31T00:29:44;18.50;99.90
31979;DHT22;18502;43.574;1.276;2023-07-31T00:32:10;18.40;99.90
31979;DHT22;18502;43.574;1.276;2023-07-31T00:34:35;18.40;99.90
31979;DHT22;18502;43.574;1.276;2023-07-31T00:37:01;18.30;99.90
31979;DHT22;18502;43.574;1.276;2023-07-31T00:39:27;18.30;99.90
31979;DHT22;18502;43.574;1.276;2023-07-31T00:41:52;18.20;99.90
31979;DHT22;18502;43.574;1.276;2023-07-31T00:44:18;18.20;99.90
31979;DHT22;18502;43.574;1.276;2023-07-31T00:46:44;18.10;99.90
31979;DHT22;18502;43.574;1.276;2023-07-31T00:49:10;18.10;99.90
31979;DHT22;18502;43.574;1.276;2023-07-31T00:51:36;18.10;99.90
31979;DHT22;18502;43.574;1.276;2023-07-31T00:54:03;18.10;99.90
31979;DHT22;18502;43.574;1.276;2023-07-31T00:56:29;18.00;99.90
31979;DHT22;18502;43.574;1.276;2023-07-31T00:58:55;18.00;99.90
31979;DHT22;18502;43.574;1.276;2023-07-31T01:01:21;17.90;99.90
31979;DHT22;18502;43.574;1.276;2023-07-31T01:03:48;17.90;99.90
31979;DHT22;18502;43.574;1.276;2023-07-31T01:11:45;17.50;99.90
31979;DHT22;18502;43.574;1.276;2023-07-31T01:14:12;17.30;99.90
31979;DHT22;18502;43.574;1.276;2023-07-31T01:16:37;17.30;99.90
31979;DHT22;18502;43.574;1.276;2023-07-31T01:19:03;17.30;99.90
31979;DHT22;18502;43.574;1.276;2023-07-31T01:26:34;17.20;99.90
31979;DHT22;18502;43.574;1.276;2023-07-31T01:31:47;17.10;99.90
31979;DHT22;18502;43.574;1.276;2023-07-31T01:34:14;17.10;99.90
31979;DHT22;18502;43.574;1.276;2023-07-31T01:36:43;17.10;99.90
31979;DHT22;18502;43.574;1.276;2023-07-31T01:39:09;17.10;99.90
31979;DHT22;18502;43.574;1.276;2023-07-31T01:41:34;17.10;99.90
31979;DHT22;18502;43.574;1.276;2023-07-31T01:44:00;17.10;99.90
31979;DHT22;18502;43.574;1.276;2023-07-31T01:46:26;17.10;99.90
31979;DHT22;18502;43.574;1.276;2023-07-31T01:48:51;17.10;99.90
31979;DHT22;18502;43.574;1.276;2023-07-31T01:51:17;17.10;99.90
31979;DHT22;18502;43.574;1.276;2023-07-31T01:53:43;17.10;99.90
31979;DHT22;18502;43.574;1.276;2023-07-31T01:56:08;17.00;99.90
31979;DHT22;18502;43.574;1.276;2023-07-31T01:58:34;16.90;99.90
31979;DHT22;18502;43.574;1.276;2023-07-31T02:01:00;16.80;99.90
31979;DHT22;18502;43.574;1.276;2023-07-31T02:03:25;16.80;99.90
31979;DHT22;18502;43.574;1.276;2023-07-31T02:05:51;16.90;99.90
31979;DHT22;18502;43.574;1.276;2023-07-31T02:08:17;16.80;99.90
31979;DHT22;18502;43.574;1.276;2023-07-31T02:10:42;16.70;99.90
31979;DHT22;18502;43.574;1.276;2023-07-31T02:13:08;16.60;99.90
31979;DHT22;18502;43.574;1.276;2023-07-31T02:15:34;16.70;99.90
31979;DHT22;18502;43.574;1.276;2023-07-31T02:18:00;16.80;99.90
31979;DHT22;18502;43.574;1.276;2023-07-31T02:20:26;16.90;99.90
31979;DHT22;18502;43.574;1.276;2023-07-31T02:22:51;16.90;99.90
31979;DHT22;18502;43.574;1.276;2023-07-31T02:25:17;16.90;99.90
31979;DHT22;18502;43.574;1.276;2023-07-31T02:27:42;16.80;99.90
31979;DHT22;18502;43.574;1.276;2023-07-31T02:30:08;16.80;99.90
31979;DHT22;18502;43.574;1.276;2023-07-31T02:32:34;16.90;99.90
31979;DHT22;18502;43.574;1.276;2023-07-31T02:35:00;16.80;99.90
31979;DHT22;18502;43.574;1.276;2023-07-31T02:37:26;16.80;99.90
31979;DHT22;18502;43.574;1.276;2023-07-31T02:39:54;16.60;99.90
31979;DHT22;18502;43.574;1.276;2023-07-31T02:42:19;16.60;99.90
31979;DHT22;18502;43.574;1.276;2023-07-31T02:44:45;16.50;99.90
31979;DHT22;18502;43.574;1.276;2023-07-31T02:47:11;16.40;99.90
31979;DHT22;18502;43.574;1.276;2023-07-31T02:49:36;16.30;99.90
31979;DHT22;18502;43.574;1.276;2023-07-31T02:52:02;16.30;99.90
31979;DHT22;18502;43.574;1.276;2023-07-31T02:54:28;16.40;99.90
31979;DHT22;18502;43.574;1.276;2023-07-31T02:56:53;16.30;99.90
31979;DHT22;18502;43.574;1.276;2023-07-31T02:59:20;16.20;99.90
31979;DHT22;18502;43.574;1.276;2023-07-31T03:01:46;16.20;99.90
31979;DHT22;18502;43.574;1.276;2023-07-31T03:04:11;16.40;99.90
31979;DHT22;18502;43.574;1.276;2023-07-31T03:06:37;16.50;99.90
31979;DHT22;18502;43.574;1.276;2023-07-31T03:09:03;16.60;99.90
31979;DHT22;18502;43.574;1.276;2023-07-31T03:11:28;16.60;99.90
31979;DHT22;18502;43.574;1.276;2023-07-31T03:13:54;16.60;99.90
31979;DHT22;18502;43.574;1.276;2023-07-31T03:16:19;16.70;99.90
31979;DHT22;18502;43.574;1.276;2023-07-31T03:18:45;16.70;99.90
31979;DHT22;18502;43.574;1.276;2023-07-31T03:21:12;16.70;99.90
31979;DHT22;18502;43.574;1.276;2023-07-31T03:23:38;16.70;99.90
31979;DHT22;18502;43.574;1.276;2023-07-31T03:26:08;16.60;99.90
31979;DHT22;18502;43.574;1.276;2023-07-31T03:28:34;16.50;99.90
31979;DHT22;18502;43.574;1.276;2023-07-31T03:30:59;16.50;99.90
31979;DHT22;18502;43.574;1.276;2023-07-31T03:33:25;16.50;99.90
31979;DHT22;18502;43.574;1.276;2023-07-31T03:35:51;16.50;99.90
31979;DHT22;18502;43.574;1.276;2023-07-31T03:38:17;16.40;99.90
31979;DHT22;18502;43.574;1.276;2023-07-31T03:40:43;16.40;99.90
31979;DHT22;18502;43.574;1.276;2023-07-31T03:43:09;16.30;99.90
31979;DHT22;18502;43.574;1.276;2023-07-31T03:45:35;16.30;99.90
31979;DHT22;18502;43.574;1.276;2023-07-31T03:48:00;16.20;99.90
31979;DHT22;18502;43.574;1.276;2023-07-31T03:50:26;16.20;99.90
31979;DHT22;18502;43.574;1.276;2023-07-31T03:52:52;16.20;99.90
31979;DHT22;18502;43.574;1.276;2023-07-31T03:55:18;16.30;99.90
31979;DHT22;18502;43.574;1.276;2023-07-31T03:57:44;16.20;99.90
31979;DHT22;18502;43.574;1.276;2023-07-31T04:00:10;16.20;99.90
31979;DHT22;18502;43.574;1.276;2023-07-31T04:02:36;16.20;99.90
31979;DHT22;18502;43.574;1.276;2023-07-31T04:05:01;16.20;99.90
31979;DHT22;18502;43.574;1.276;2023-07-31T04:07:27;16.20;99.90
31979;DHT22;18502;43.574;1.276;2023-07-31T04:09:53;16.20;99.90
31979;DHT22;18502;43.574;1.276;2023-07-31T04:12:18;16.20;99.90
31979;DHT22;18502;43.574;1.276;2023-07-31T04:14:44;16.10;99.90
31979;DHT22;18502;43.574;1.276;2023-07-31T04:17:09;16.20;99.90
31979;DHT22;18502;43.574;1.276;2023-07-31T04:19:35;16.10;99.90
31979;DHT22;18502;43.574;1.276;2023-07-31T04:22:01;16.10;99.90
31979;DHT22;18502;43.574;1.276;2023-07-31T04:24:26;16.10;99.90
31979;DHT22;18502;43.574;1.276;2023-07-31T04:26:53;16.00;99.90
31979;DHT22;18502;43.574;1.276;2023-07-31T04:29:19;16.00;99.90
31979;DHT22;18502;43.574;1.276;2023-07-31T04:31:44;16.00;99.90
31979;DHT22;18502;43.574;1.276;2023-07-31T04:34:10;15.90;99.90
31979;DHT22;18502;43.574;1.276;2023-07-31T04:36:37;15.90;99.90
31979;DHT22;18502;43.574;1.276;2023-07-31T04:39:02;16.00;99.90
31979;DHT22;18502;43.574;1.276;2023-07-31T04:41:28;16.00;99.90
31979;DHT22;18502;43.574;1.276;2023-07-31T04:43:54;16.00;99.90
31979;DHT22;18502;43.574;1.276;2023-07-31T04:46:20;16.00;99.90
31979;DHT22;18502;43.574;1.276;2023-07-31T04:48:45;16.00;99.90
31979;DHT22;18502;43.574;1.276;2023-07-31T04:51:11;16.00;99.90
31979;DHT22;18502;43.574;1.276;2023-07-31T04:53:37;16.00;99.90
31979;DHT22;18502;43.574;1.276;2023-07-31T04:56:03;16.00;99.90
31979;DHT22;18502;43.574;1.276;2023-07-31T04:58:29;16.00;99.90
31979;DHT22;18502;43.574;1.276;2023-07-31T05:00:54;16.00;99.90
31979;DHT22;18502;43.574;1.276;2023-07-31T05:03:20;15.90;99.90
31979;DHT22;18502;43.574;1.276;2023-07-31T05:05:45;15.90;99.90
31979;DHT22;18502;43.574;1.276;2023-07-31T05:08:11;15.90;99.90
31979;DHT22;18502;43.574;1.276;2023-07-31T05:10:37;15.90;99.90
31979;DHT22;18502;43.574;1.276;2023-07-31T05:13:03;16.00;99.90
31979;DHT22;18502;43.574;1.276;2023-07-31T05:15:29;16.00;99.90
31979;DHT22;18502;43.574;1.276;2023-07-31T05:17:54;16.10;99.90
31979;DHT22;18502;43.574;1.276;2023-07-31T05:20:20;16.10;99.90
31979;DHT22;18502;43.574;1.276;2023-07-31T05:22:46;16.20;99.90
31979;DHT22;18502;43.574;1.276;2023-07-31T05:25:12;16.10;99.90
31979;DHT22;18502;43.574;1.276;2023-07-31T05:27:37;16.10;99.90
31979;DHT22;18502;43.574;1.276;2023-07-31T05:30:04;16.20;99.90
31979;DHT22;18502;43.574;1.276;2023-07-31T05:32:30;16.20;99.90
31979;DHT22;18502;43.574;1.276;2023-07-31T05:34:55;16.30;99.90
31979;DHT22;18502;43.574;1.276;2023-07-31T05:37:21;16.30;99.90
31979;DHT22;18502;43.574;1.276;2023-07-31T05:39:47;16.30;99.90
31979;DHT22;18502;43.574;1.276;2023-07-31T05:42:12;16.30;99.90
31979;DHT22;18502;43.574;1.276;2023-07-31T05:44:38;16.30;99.90
31979;DHT22;18502;43.574;1.276;2023-07-31T05:47:04;16.30;99.90
31979;DHT22;18502;43.574;1.276;2023-07-31T05:49:30;16.40;99.90
31979;DHT22;18502;43.574;1.276;2023-07-31T05:51:55;16.40;99.90
31979;DHT22;18502;43.574;1.276;2023-07-31T05:54:21;16.40;99.90
31979;DHT22;18502;43.574;1.276;2023-07-31T05:56:47;16.50;99.90
31979;DHT22;18502;43.574;1.276;2023-07-31T05:59:13;16.50;99.90
31979;DHT22;18502;43.574;1.276;2023-07-31T06:01:39;16.60;99.90
31979;DHT22;18502;43.574;1.276;2023-07-31T06:04:04;16.70;99.90
31979;DHT22;18502;43.574;1.276;2023-07-31T06:06:30;16.80;99.90
31979;DHT22;18502;43.574;1.276;2023-07-31T06:08:56;16.90;99.90
31979;DHT22;18502;43.574;1.276;2023-07-31T06:11:22;16.90;99.90
31979;DHT22;18502;43.574;1.276;2023-07-31T06:13:48;17.00;99.90
31979;DHT22;18502;43.574;1.276;2023-07-31T06:16:15;17.10;99.90
31979;DHT22;18502;43.574;1.276;2023-07-31T06:18:41;17.20;99.90
31979;DHT22;18502;43.574;1.276;2023-07-31T06:21:07;17.20;99.90
31979;DHT22;18502;43.574;1.276;2023-07-31T06:23:33;17.30;99.90
31979;DHT22;18502;43.574;1.276;2023-07-31T06:25:59;17.40;99.90
31979;DHT22;18502;43.574;1.276;2023-07-31T06:28:28;17.40;99.90
31979;DHT22;18502;43.574;1.276;2023-07-31T06:30:57;17.50;99.90
31979;DHT22;18502;43.574;1.276;2023-07-31T06:33:23;17.60;99.90
31979;DHT22;18502;43.574;1.276;2023-07-31T06:35:50;17.60;99.90
31979;DHT22;18502;43.574;1.276;2023-07-31T06:38:18;17.70;99.90
31979;DHT22;18502;43.574;1.276;2023-07-31T06:40:44;17.80;99.90
31979;DHT22;18502;43.574;1.276;2023-07-31T06:43:10;17.90;99.90
31979;DHT22;18502;43.574;1.276;2023-07-31T06:45:36;18.00;99.90
31979;DHT22;18502;43.574;1.276;2023-07-31T06:48:02;18.00;99.90
31979;DHT22;18502;43.574;1.276;2023-07-31T06:50:29;18.20;99.90
31979;DHT22;18502;43.574;1.276;2023-07-31T06:52:55;18.30;99.90
31979;DHT22;18502;43.574;1.276;2023-07-31T06:55:21;18.40;99.90
31979;DHT22;18502;43.574;1.276;2023-07-31T06:57:48;18.50;99.90
31979;DHT22;18502;43.574;1.276;2023-07-31T07:00:15;18.50;99.90
31979;DHT22;18502;43.574;1.276;2023-07-31T07:02:41;18.60;99.90
31979;DHT22;18502;43.574;1.276;2023-07-31T07:05:07;18.70;99.90
31979;DHT22;18502;43.574;1.276;2023-07-31T07:07:33;18.80;99.90
31979;DHT22;18502;43.574;1.276;2023-07-31T07:09:59;18.80;99.90
31979;DHT22;18502;43.574;1.276;2023-07-31T07:12:32;18.90;99.90
31979;DHT22;18502;43.574;1.276;2023-07-31T07:14:59;19.00;99.90
31979;DHT22;18502;43.574;1.276;2023-07-31T07:17:25;19.10;99.90
31979;DHT22;18502;43.574;1.276;2023-07-31T07:19:51;19.10;99.90
31979;DHT22;18502;43.574;1.276;2023-07-31T07:22:17;19.20;99.90
31979;DHT22;18502;43.574;1.276;2023-07-31T07:24:43;19.30;99.90
31979;DHT22;18502;43.574;1.276;2023-07-31T07:27:09;19.40;99.90
31979;DHT22;18502;43.574;1.276;2023-07-31T07:29:35;19.40;99.90
31979;DHT22;18502;43.574;1.276;2023-07-31T07:32:00;19.50;99.90
31979;DHT22;18502;43.574;1.276;2023-07-31T07:34:27;19.60;99.90
31979;DHT22;18502;43.574;1.276;2023-07-31T07:36:53;19.70;99.90
31979;DHT22;18502;43.574;1.276;2023-07-31T07:39:19;19.80;99.90
31979;DHT22;18502;43.574;1.276;2023-07-31T07:41:46;19.90;99.90
31979;DHT22;18502;43.574;1.276;2023-07-31T07:44:12;20.00;99.90
31979;DHT22;18502;43.574;1.276;2023-07-31T07:46:38;20.20;99.90
31979;DHT22;18502;43.574;1.276;2023-07-31T07:49:04;20.00;99.90
31979;DHT22;18502;43.574;1.276;2023-07-31T07:51:29;20.10;99.90
31979;DHT22;18502;43.574;1.276;2023-07-31T07:53:57;20.20;99.90
31979;DHT22;18502;43.574;1.276;2023-07-31T07:56:23;20.20;99.90
31979;DHT22;18502;43.574;1.276;2023-07-31T07:58:49;20.40;99.90
31979;DHT22;18502;43.574;1.276;2023-07-31T08:01:15;20.50;99.90
31979;DHT22;18502;43.574;1.276;2023-07-31T08:03:41;20.60;99.90
31979;DHT22;18502;43.574;1.276;2023-07-31T08:06:07;20.60;99.90
31979;DHT22;18502;43.574;1.276;2023-07-31T08:08:35;20.60;99.90
31979;DHT22;18502;43.574;1.276;2023-07-31T08:11:01;20.70;99.90
31979;DHT22;18502;43.574;1.276;2023-07-31T08:13:26;20.70;99.90
31979;DHT22;18502;43.574;1.276;2023-07-31T08:15:52;20.90;99.90
31979;DHT22;18502;43.574;1.276;2023-07-31T08:18:18;21.00;99.90
31979;DHT22;18502;43.574;1.276;2023-07-31T08:20:44;21.10;99.90
31979;DHT22;18502;43.574;1.276;2023-07-31T08:23:10;21.30;99.90
31979;DHT22;18502;43.574;1.276;2023-07-31T08:25:36;21.30;99.90
31979;DHT22;18502;43.574;1.276;2023-07-31T08:28:03;21.40;99.90
31979;DHT22;18502;43.574;1.276;2023-07-31T08:30:28;21.50;99.90
31979;DHT22;18502;43.574;1.276;2023-07-31T08:32:54;21.40;99.90
31979;DHT22;18502;43.574;1.276;2023-07-31T08:35:20;21.50;99.90
31979;DHT22;18502;43.574;1.276;2023-07-31T08:37:45;21.60;99.90
31979;DHT22;18502;43.574;1.276;2023-07-31T08:40:11;21.70;99.90
31979;DHT22;18502;43.574;1.276;2023-07-31T08:42:44;21.80;99.90
31979;DHT22;18502;43.574;1.276;2023-07-31T08:45:17;21.90;99.90
31979;DHT22;18502;43.574;1.276;2023-07-31T08:47:45;21.80;99.90
31979;DHT22;18502;43.574;1.276;2023-07-31T08:50:13;21.90;99.90
31979;DHT22;18502;43.574;1.276;2023-07-31T08:52:39;22.00;99.90
31979;DHT22;18502;43.574;1.276;2023-07-31T08:55:05;22.00;99.90
31979;DHT22;18502;43.574;1.276;2023-07-31T08:57:32;22.30;99.90
31979;DHT22;18502;43.574;1.276;2023-07-31T08:59:59;22.30;99.90
31979;DHT22;18502;43.574;1.276;2023-07-31T09:02:31;22.20;99.90
31979;DHT22;18502;43.574;1.276;2023-07-31T09:05:01;22.20;99.90
31979;DHT22;18502;43.574;1.276;2023-07-31T09:07:27;22.40;99.90
31979;DHT22;18502;43.574;1.276;2023-07-31T09:09:53;22.50;99.90
31979;DHT22;18502;43.574;1.276;2023-07-31T09:12:19;22.40;99.90
31979;DHT22;18502;43.574;1.276;2023-07-31T09:14:45;22.40;99.90
31979;DHT22;18502;43.574;1.276;2023-07-31T09:17:12;22.70;99.90
31979;DHT22;18502;43.574;1.276;2023-07-31T09:19:38;22.80;99.90
31979;DHT22;18502;43.574;1.276;2023-07-31T09:22:05;23.20;99.90
31979;DHT22;18502;43.574;1.276;2023-07-31T09:24:33;22.90;99.90
31979;DHT22;18502;43.574;1.276;2023-07-31T09:27:00;22.60;99.90
31979;DHT22;18502;43.574;1.276;2023-07-31T09:29:27;22.50;99.90
31979;DHT22;18502;43.574;1.276;2023-07-31T09:31:54;22.70;99.90
31979;DHT22;18502;43.574;1.276;2023-07-31T09:34:21;22.80;99.90
31979;DHT22;18502;43.574;1.276;2023-07-31T09:36:53;23.10;99.90
31979;DHT22;18502;43.574;1.276;2023-07-31T09:39:19;23.30;99.90
31979;DHT22;18502;43.574;1.276;2023-07-31T09:41:54;23.50;99.90
31979;DHT22;18502;43.574;1.276;2023-07-31T09:44:20;23.50;99.90
31979;DHT22;18502;43.574;1.276;2023-07-31T09:46:46;23.80;99.90
31979;DHT22;18502;43.574;1.276;2023-07-31T09:49:14;23.60;99.90
31979;DHT22;18502;43.574;1.276;2023-07-31T09:51:41;23.60;99.90
31979;DHT22;18502;43.574;1.276;2023-07-31T09:54:15;23.50;99.90
31979;DHT22;18502;43.574;1.276;2023-07-31T09:56:43;23.30;99.90
31979;DHT22;18502;43.574;1.276;2023-07-31T09:59:12;23.50;99.90
31979;DHT22;18502;43.574;1.276;2023-07-31T10:01:40;23.50;99.90
31979;DHT22;18502;43.574;1.276;2023-07-31T10:04:08;23.50;99.90
31979;DHT22;18502;43.574;1.276;2023-07-31T10:06:35;24.00;99.90
31979;DHT22;18502;43.574;1.276;2023-07-31T10:09:02;24.20;99.90
31979;DHT22;18502;43.574;1.276;2023-07-31T10:11:30;24.50;99.90
31979;DHT22;18502;43.574;1.276;2023-07-31T10:13:59;24.20;99.90
31979;DHT22;18502;43.574;1.276;2023-07-31T10:16:25;24.20;99.90
31979;DHT22;18502;43.574;1.276;2023-07-31T10:18:51;24.30;99.90
31979;DHT22;18502;43.574;1.276;2023-07-31T10:21:18;24.10;99.90
31979;DHT22;18502;43.574;1.276;2023-07-31T10:23:44;23.80;99.90
31979;DHT22;18502;43.574;1.276;2023-07-31T10:26:10;24.10;99.90
31979;DHT22;18502;43.574;1.276;2023-07-31T10:28:37;24.60;99.90
31979;DHT22;18502;43.574;1.276;2023-07-31T10:31:03;24.90;99.90
31979;DHT22;18502;43.574;1.276;2023-07-31T10:33:29;24.90;99.90
31979;DHT22;18502;43.574;1.276;2023-07-31T10:36:18;24.90;99.90
31979;DHT22;18502;43.574;1.276;2023-07-31T10:38:44;24.60;99.90
31979;DHT22;18502;43.574;1.276;2023-07-31T10:41:10;24.60;99.90
31979;DHT22;18502;43.574;1.276;2023-07-31T10:43:37;24.40;99.90
31979;DHT22;18502;43.574;1.276;2023-07-31T10:46:11;24.90;99.90
31979;DHT22;18502;43.574;1.276;2023-07-31T10:48:39;25.30;99.90
31979;DHT22;18502;43.574;1.276;2023-07-31T10:51:08;25.40;99.90
31979;DHT22;18502;43.574;1.276;2023-07-31T10:53:35;25.40;99.90
31979;DHT22;18502;43.574;1.276;2023-07-31T10:56:02;25.40;99.90
31979;DHT22;18502;43.574;1.276;2023-07-31T10:58:28;25.50;99.90
31979;DHT22;18502;43.574;1.276;2023-07-31T11:01:01;25.60;99.90
31979;DHT22;18502;43.574;1.276;2023-07-31T11:03:48;25.40;99.90
31979;DHT22;18502;43.574;1.276;2023-07-31T11:06:15;25.80;99.90
31979;DHT22;18502;43.574;1.276;2023-07-31T11:08:43;25.40;99.90
31979;DHT22;18502;43.574;1.276;2023-07-31T11:11:11;25.40;99.90
31979;DHT22;18502;43.574;1.276;2023-07-31T11:13:44;26.10;99.90
31979;DHT22;18502;43.574;1.276;2023-07-31T11:16:14;26.30;99.90
31979;DHT22;18502;43.574;1.276;2023-07-31T11:18:42;26.10;99.90
31979;DHT22;18502;43.574;1.276;2023-07-31T11:21:12;26.30;99.90
31979;DHT22;18502;43.574;1.276;2023-07-31T11:23:38;26.70;99.90
31979;DHT22;18502;43.574;1.276;2023-07-31T11:26:05;26.50;99.90
31979;DHT22;18502;43.574;1.276;2023-07-31T11:28:33;26.50;99.90
31979;DHT22;18502;43.574;1.276;2023-07-31T11:31:02;26.90;99.90
31979;DHT22;18502;43.574;1.276;2023-07-31T11:33:28;27.40;99.90
31979;DHT22;18502;43.574;1.276;2023-07-31T11:35:54;28.70;99.90
31979;DHT22;18502;43.574;1.276;2023-07-31T11:41:01;34.20;99.90
31979;DHT22;18502;43.574;1.276;2023-07-31T11:43:33;36.50;98.50
31979;DHT22;18502;43.574;1.276;2023-07-31T11:46:02;38.40;94.20
31979;DHT22;18502;43.574;1.276;2023-07-31T11:48:35;39.60;92.00
31979;DHT22;18502;43.574;1.276;2023-07-31T11:51:04;39.70;90.20
31979;DHT22;18502;43.574;1.276;2023-07-31T11:53:41;38.60;87.90
31979;DHT22;18502;43.574;1.276;2023-07-31T11:56:10;39.10;87.20
31979;DHT22;18502;43.574;1.276;2023-07-31T11:58:38;41.00;85.50
31979;DHT22;18502;43.574;1.276;2023-07-31T12:01:05;39.10;80.30
31979;DHT22;18502;43.574;1.276;2023-07-31T12:03:31;38.90;81.50
31979;DHT22;18502;43.574;1.276;2023-07-31T12:05:58;39.30;82.00
31979;DHT22;18502;43.574;1.276;2023-07-31T12:08:25;40.50;81.10
31979;DHT22;18502;43.574;1.276;2023-07-31T12:10:52;41.30;78.80
31979;DHT22;18502;43.574;1.276;2023-07-31T12:13:25;42.50;76.40
31979;DHT22;18502;43.574;1.276;2023-07-31T12:15:55;43.60;74.70
31979;DHT22;18502;43.574;1.276;2023-07-31T12:18:24;43.30;71.50
31979;DHT22;18502;43.574;1.276;2023-07-31T12:20:55;40.00;75.30
31979;DHT22;18502;43.574;1.276;2023-07-31T12:23:24;41.90;75.00
31979;DHT22;18502;43.574;1.276;2023-07-31T12:26:17;43.80;73.00
31979;DHT22;18502;43.574;1.276;2023-07-31T12:31:20;44.80;68.30
31979;DHT22;18502;43.574;1.276;2023-07-31T12:33:48;43.90;67.50
31979;DHT22;18502;43.574;1.276;2023-07-31T12:36:23;42.10;70.50
31979;DHT22;18502;43.574;1.276;2023-07-31T12:38:50;40.10;72.80
31979;DHT22;18502;43.574;1.276;2023-07-31T12:41:16;40.70;71.00
31979;DHT22;18502;43.574;1.276;2023-07-31T12:43:43;42.20;70.20
31979;DHT22;18502;43.574;1.276;2023-07-31T12:46:09;44.00;68.10
31979;DHT22;18502;43.574;1.276;2023-07-31T12:48:36;45.20;67.80
31979;DHT22;18502;43.574;1.276;2023-07-31T12:51:02;46.40;67.20
31979;DHT22;18502;43.574;1.276;2023-07-31T12:53:28;42.20;66.40
31979;DHT22;18502;43.574;1.276;2023-07-31T12:55:55;39.20;71.90
31979;DHT22;18502;43.574;1.276;2023-07-31T12:58:20;41.90;70.60
31979;DHT22;18502;43.574;1.276;2023-07-31T13:00:46;42.70;69.60
31979;DHT22;18502;43.574;1.276;2023-07-31T13:03:12;43.50;67.40
31979;DHT22;18502;43.574;1.276;2023-07-31T13:05:37;43.20;67.80
31979;DHT22;18502;43.574;1.276;2023-07-31T13:08:03;44.70;67.00
31979;DHT22;18502;43.574;1.276;2023-07-31T13:10:29;45.60;64.70
31979;DHT22;18502;43.574;1.276;2023-07-31T13:12:55;46.90;64.90
31979;DHT22;18502;43.574;1.276;2023-07-31T13:15:21;46.50;63.70
31979;DHT22;18502;43.574;1.276;2023-07-31T13:17:47;44.70;64.10
31979;DHT22;18502;43.574;1.276;2023-07-31T13:20:13;42.40;67.10
31979;DHT22;18502;43.574;1.276;2023-07-31T13:22:38;43.40;67.30
31979;DHT22;18502;43.574;1.276;2023-07-31T13:25:05;43.10;67.40
31979;DHT22;18502;43.574;1.276;2023-07-31T13:27:31;45.70;64.40
31979;DHT22;18502;43.574;1.276;2023-07-31T13:29:57;45.10;62.80
31979;DHT22;18502;43.574;1.276;2023-07-31T13:32:23;44.90;62.50
31979;DHT22;18502;43.574;1.276;2023-07-31T13:34:49;42.60;65.00
31979;DHT22;18502;43.574;1.276;2023-07-31T13:37:15;42.90;65.80
31979;DHT22;18502;43.574;1.276;2023-07-31T13:39:41;44.10;64.50
31979;DHT22;18502;43.574;1.276;2023-07-31T13:42:08;45.70;61.40
31979;DHT22;18502;43.574;1.276;2023-07-31T13:44:39;45.90;61.70
31979;DHT22;18502;43.574;1.276;2023-07-31T13:47:05;45.70;61.00
31979;DHT22;18502;43.574;1.276;2023-07-31T13:49:32;43.40;63.10
31979;DHT22;18502;43.574;1.276;2023-07-31T13:51:58;45.90;61.50
31979;DHT22;18502;43.574;1.276;2023-07-31T13:54:24;47.50;60.00
31979;DHT22;18502;43.574;1.276;2023-07-31T13:56:51;48.50;58.60
31979;DHT22;18502;43.574;1.276;2023-07-31T13:59:17;44.80;61.20
31979;DHT22;18502;43.574;1.276;2023-07-31T14:01:43;45.80;59.80
31979;DHT22;18502;43.574;1.276;2023-07-31T14:04:09;44.00;60.60
31979;DHT22;18502;43.574;1.276;2023-07-31T14:06:35;45.00;62.00
31979;DHT22;18502;43.574;1.276;2023-07-31T14:09:01;44.90;60.30
31979;DHT22;18502;43.574;1.276;2023-07-31T14:11:28;46.10;59.00
31979;DHT22;18502;43.574;1.276;2023-07-31T14:13:53;44.40;60.10
31979;DHT22;18502;43.574;1.276;2023-07-31T14:16:19;45.20;59.30
31979;DHT22;18502;43.574;1.276;2023-07-31T14:18:45;44.60;59.30
31979;DHT22;18502;43.574;1.276;2023-07-31T14:21:13;46.70;56.40
31979;DHT22;18502;43.574;1.276;2023-07-31T14:23:39;47.30;58.10
31979;DHT22;18502;43.574;1.276;2023-07-31T14:26:05;47.10;58.00
31979;DHT22;18502;43.574;1.276;2023-07-31T14:28:31;48.10;57.10
31979;DHT22;18502;43.574;1.276;2023-07-31T14:30:56;47.50;57.00
31979;DHT22;18502;43.574;1.276;2023-07-31T14:33:22;44.10;57.90
31979;DHT22;18502;43.574;1.276;2023-07-31T14:35:48;43.30;58.90
31979;DHT22;18502;43.574;1.276;2023-07-31T14:38:13;41.70;61.40
31979;DHT22;18502;43.574;1.276;2023-07-31T14:40:39;41.70;62.10
31979;DHT22;18502;43.574;1.276;2023-07-31T14:43:05;43.00;59.80
31979;DHT22;18502;43.574;1.276;2023-07-31T14:45:30;42.90;58.40
31979;DHT22;18502;43.574;1.276;2023-07-31T14:47:56;42.70;60.10
31979;DHT22;18502;43.574;1.276;2023-07-31T14:50:22;41.80;59.80
31979;DHT22;18502;43.574;1.276;2023-07-31T14:52:49;44.50;58.10
31979;DHT22;18502;43.574;1.276;2023-07-31T14:55:14;44.10;59.20
31979;DHT22;18502;43.574;1.276;2023-07-31T14:57:40;44.30;58.50
31979;DHT22;18502;43.574;1.276;2023-07-31T15:00:06;44.10;57.40
31979;DHT22;18502;43.574;1.276;2023-07-31T15:02:38;42.70;59.60
31979;DHT22;18502;43.574;1.276;2023-07-31T15:05:04;42.80;59.20
31979;DHT22;18502;43.574;1.276;2023-07-31T15:07:30;42.80;60.00
31979;DHT22;18502;43.574;1.276;2023-07-31T15:09:56;43.60;59.50
31979;DHT22;18502;43.574;1.276;2023-07-31T15:12:22;44.40;57.60
31979;DHT22;18502;43.574;1.276;2023-07-31T15:14:51;46.60;57.90
31979;DHT22;18502;43.574;1.276;2023-07-31T15:17:17;46.10;56.90
31979;DHT22;18502;43.574;1.276;2023-07-31T15:19:43;42.50;58.60
31979;DHT22;18502;43.574;1.276;2023-07-31T15:22:09;42.00;61.80
31979;DHT22;18502;43.574;1.276;2023-07-31T15:24:35;45.20;57.50
31979;DHT22;18502;43.574;1.276;2023-07-31T15:27:00;46.00;55.90
31979;DHT22;18502;43.574;1.276;2023-07-31T15:29:28;44.80;57.40
31979;DHT22;18502;43.574;1.276;2023-07-31T15:31:54;44.60;56.60
31979;DHT22;18502;43.574;1.276;2023-07-31T15:34:20;46.90;56.00
31979;DHT22;18502;43.574;1.276;2023-07-31T15:36:46;46.20;55.70
31979;DHT22;18502;43.574;1.276;2023-07-31T15:39:12;47.60;53.70
31979;DHT22;18502;43.574;1.276;2023-07-31T15:41:38;46.80;54.70
31979;DHT22;18502;43.574;1.276;2023-07-31T15:44:05;46.80;54.10